createdAt,value
2023-01-29T00:00:00.394Z,-2.31
2023-01-29T00:01:00.498Z,-2.32
2023-01-29T00:02:00.638Z,-2.33
2023-01-29T00:03:00.765Z,-2.33
2023-01-29T00:04:00.836Z,-2.33
2023-01-29T00:05:13.006Z,-2.34
2023-01-29T00:06:01.025Z,-2.34
2023-01-29T00:07:01.125Z,-2.33
2023-01-29T00:08:00.234Z,-2.32
2023-01-29T00:09:00.349Z,-2.34
2023-01-29T00:10:00.459Z,-2.34
2023-01-29T00:11:00.577Z,-2.34
2023-01-29T00:12:00.665Z,-2.36
2023-01-29T00:13:00.787Z,-2.36
2023-01-29T00:14:00.887Z,-2.36
2023-01-29T00:15:00.985Z,-2.36
2023-01-29T00:16:01.105Z,-2.37
2023-01-29T00:17:01.237Z,-2.38
2023-01-29T00:18:00.304Z,-2.38
2023-01-29T00:19:00.409Z,-2.39
2023-01-29T00:20:00.498Z,-2.41
2023-01-29T00:21:00.655Z,-2.41
2023-01-29T00:22:00.718Z,-2.41
2023-01-29T00:23:00.818Z,-2.42
2023-01-29T00:24:00.981Z,-2.43
2023-01-29T00:25:01.054Z,-2.43
2023-01-29T00:26:01.131Z,-2.42
2023-01-29T00:27:00.252Z,-2.43
2023-01-29T00:28:00.350Z,-2.43
2023-01-29T00:29:00.462Z,-2.44
2023-01-29T00:30:00.587Z,-2.44
2023-01-29T00:31:00.825Z,-2.45
2023-01-29T00:32:00.912Z,-2.45
2023-01-29T00:33:00.869Z,-2.46
2023-01-29T00:34:00.985Z,-2.47
2023-01-29T00:35:01.110Z,-2.47
2023-01-29T00:36:01.201Z,-2.47
2023-01-29T00:37:00.303Z,-2.47
2023-01-29T00:38:00.408Z,-2.47
2023-01-29T00:39:00.618Z,-2.48
2023-01-29T00:40:00.638Z,-2.5
2023-01-29T00:41:00.726Z,-2.5
2023-01-29T00:42:00.834Z,-2.51
2023-01-29T00:43:00.951Z,-2.52
2023-01-29T00:44:01.050Z,-2.54
2023-01-29T00:45:01.177Z,-2.54
2023-01-29T00:46:00.271Z,-2.57
2023-01-29T00:47:00.395Z,-2.57
2023-01-29T00:48:00.477Z,-2.57
2023-01-29T00:49:00.959Z,-2.54
2023-01-29T00:50:00.707Z,-2.57
2023-01-29T00:51:00.793Z,-2.54
2023-01-29T00:52:00.908Z,-2.54
2023-01-29T00:53:01.001Z,-2.57
2023-01-29T00:54:01.109Z,-2.57
2023-01-29T00:55:01.242Z,-2.57
2023-01-29T00:56:00.311Z,-2.54
2023-01-29T00:57:00.420Z,-2.54
2023-01-29T00:58:00.509Z,-2.53
2023-01-29T00:59:00.621Z,-2.57
2023-01-29T01:00:00.740Z,-2.57
2023-01-29T01:01:00.879Z,-2.57
2023-01-29T01:02:01.028Z,-2.57
2023-01-29T01:03:01.038Z,-2.58
2023-01-29T01:04:01.141Z,-2.59
2023-01-29T01:05:00.259Z,-2.59
2023-01-29T01:06:00.362Z,-2.58
2023-01-29T01:07:00.477Z,-2.59
2023-01-29T01:08:00.630Z,-2.59
2023-01-29T01:09:00.666Z,-2.6
2023-01-29T01:10:00.793Z,-2.61
2023-01-29T01:11:00.886Z,-2.62
2023-01-29T01:12:00.996Z,-2.62
2023-01-29T01:13:01.136Z,-2.63
2023-01-29T01:14:01.200Z,-2.63
2023-01-29T01:15:00.307Z,-2.64
2023-01-29T01:16:00.479Z,-2.63
2023-01-29T01:17:00.515Z,-2.63
2023-01-29T01:18:00.636Z,-2.64
2023-01-29T01:19:00.745Z,-2.64
2023-01-29T01:20:00.837Z,-2.64
2023-01-29T01:21:00.937Z,-2.64
2023-01-29T01:22:01.032Z,-2.65
2023-01-29T01:23:01.148Z,-2.64
2023-01-29T01:24:00.305Z,-2.65
2023-01-29T01:25:00.379Z,-2.65
2023-01-29T01:26:00.459Z,-2.66
2023-01-29T01:27:00.566Z,-2.67
2023-01-29T01:28:00.725Z,-2.68
2023-01-29T01:29:00.765Z,-2.69
2023-01-29T01:30:00.892Z,-2.71
2023-01-29T01:31:01.019Z,-2.71
2023-01-29T01:32:01.147Z,-2.72
2023-01-29T01:33:01.217Z,-2.73
2023-01-29T01:34:00.316Z,-2.74
2023-01-29T01:35:00.403Z,-2.74
2023-01-29T01:36:00.515Z,-2.74
2023-01-29T01:37:00.607Z,-2.75
2023-01-29T01:38:00.714Z,-2.75
2023-01-29T01:39:00.812Z,-2.75
2023-01-29T01:40:00.908Z,-2.76
2023-01-29T01:41:01.019Z,-2.77
2023-01-29T01:42:01.125Z,-2.77
2023-01-29T01:43:00.249Z,-2.77
2023-01-29T01:44:00.333Z,-2.78
2023-01-29T01:45:00.467Z,-2.78
2023-01-29T01:46:00.622Z,-2.8
2023-01-29T01:47:00.640Z,-2.8
2023-01-29T01:48:00.773Z,-2.8
2023-01-29T01:49:00.864Z,-2.81
2023-01-29T01:50:00.944Z,-2.82
2023-01-29T01:51:01.052Z,-2.81
2023-01-29T01:52:01.157Z,-2.82
2023-01-29T01:53:00.259Z,-2.83
2023-01-29T01:54:00.374Z,-2.83
2023-01-29T01:55:00.490Z,-2.83
2023-01-29T01:56:00.563Z,-2.84
2023-01-29T01:57:00.680Z,-2.84
2023-01-29T01:58:00.803Z,-2.86
2023-01-29T01:59:00.879Z,-2.86
2023-01-29T02:00:01.002Z,-2.87
2023-01-29T02:01:01.141Z,-2.86
2023-01-29T02:02:01.307Z,-2.86
2023-01-29T02:03:00.318Z,-2.86
2023-01-29T02:04:00.414Z,-2.86
2023-01-29T02:05:00.519Z,-2.86
2023-01-29T02:06:00.631Z,-2.86
2023-01-29T02:07:00.772Z,-2.84
2023-01-29T02:08:00.844Z,-2.86
2023-01-29T02:09:00.951Z,-2.86
2023-01-29T02:10:01.045Z,-2.86
2023-01-29T02:11:01.150Z,-2.87
2023-01-29T02:12:00.255Z,-2.87
2023-01-29T02:13:00.383Z,-2.88
2023-01-29T02:14:00.470Z,-2.88
2023-01-29T02:15:00.566Z,-2.89
2023-01-29T02:16:00.732Z,-2.9
2023-01-29T02:17:00.790Z,-2.9
2023-01-29T02:18:00.917Z,-2.9
2023-01-29T02:19:01.003Z,-2.91
2023-01-29T02:20:01.116Z,-2.93
2023-01-29T02:21:01.209Z,-2.93
2023-01-29T02:22:00.315Z,-2.94
2023-01-29T02:23:02.558Z,-2.96
2023-01-29T02:24:00.698Z,-2.98
2023-01-29T02:25:00.620Z,-3.01
2023-01-29T02:26:00.756Z,-3.04
2023-01-29T02:27:00.819Z,-3.06
2023-01-29T02:28:00.937Z,-3.08
2023-01-29T02:29:01.060Z,-3.11
2023-01-29T02:30:01.166Z,-3.13
2023-01-29T02:31:00.418Z,-3.17
2023-01-29T02:32:00.453Z,-3.19
2023-01-29T02:33:00.456Z,-3.21
2023-01-29T02:34:00.572Z,-3.22
2023-01-29T02:35:00.686Z,-3.24
2023-01-29T02:36:00.769Z,-3.28
2023-01-29T02:37:00.880Z,-3.31
2023-01-29T02:38:00.984Z,-3.33
2023-01-29T02:39:01.084Z,-3.34
2023-01-29T02:40:01.227Z,-3.36
2023-01-29T02:41:00.297Z,-3.38
2023-01-29T02:42:00.409Z,-3.39
2023-01-29T02:43:00.511Z,-3.42
2023-01-29T02:44:00.618Z,-3.43
2023-01-29T02:45:00.753Z,-3.46
2023-01-29T02:46:00.968Z,-3.47
2023-01-29T02:47:00.939Z,-3.49
2023-01-29T02:48:01.029Z,-3.51
2023-01-29T02:49:01.136Z,-3.53
2023-01-29T02:50:00.266Z,-3.55
2023-01-29T02:51:00.371Z,-3.57
2023-01-29T02:52:00.468Z,-3.6
2023-01-29T02:53:00.570Z,-3.61
2023-01-29T02:54:00.673Z,-3.64
2023-01-29T02:55:00.805Z,-3.67
2023-01-29T02:56:00.892Z,-3.71
2023-01-29T02:57:01.002Z,-3.75
2023-01-29T02:58:01.114Z,-3.79
2023-01-29T02:59:01.205Z,-3.83
2023-01-29T03:00:00.338Z,-3.86
2023-01-29T03:01:00.493Z,-3.91
2023-01-29T03:02:00.554Z,-3.96
2023-01-29T03:03:00.630Z,-3.97
2023-01-29T03:04:00.744Z,-4
2023-01-29T03:05:00.855Z,-4.02
2023-01-29T03:06:00.968Z,-4.01
2023-01-29T03:07:01.067Z,-4
2023-01-29T03:08:01.167Z,-3.99
2023-01-29T03:09:00.305Z,-4
2023-01-29T03:10:00.379Z,-4.04
2023-01-29T03:11:00.486Z,-4.07
2023-01-29T03:12:00.652Z,-4.11
2023-01-29T03:13:00.685Z,-4.14
2023-01-29T03:14:00.809Z,-4.16
2023-01-29T03:15:00.900Z,-4.2
2023-01-29T03:16:01.000Z,-4.22
2023-01-29T03:17:01.109Z,-4.25
2023-01-29T03:18:01.205Z,-4.28
2023-01-29T03:19:00.343Z,-4.31
2023-01-29T03:20:00.423Z,-4.35
2023-01-29T03:21:00.520Z,-4.38
2023-01-29T03:22:00.636Z,-4.4
2023-01-29T03:23:00.721Z,-4.43
2023-01-29T03:24:00.848Z,-4.45
2023-01-29T03:25:00.981Z,-4.46
2023-01-29T03:26:01.058Z,-4.49
2023-01-29T03:27:01.146Z,-4.5
2023-01-29T03:28:00.278Z,-4.5
2023-01-29T03:29:00.353Z,-4.5
2023-01-29T03:30:00.458Z,-4.5
2023-01-29T03:31:00.697Z,-4.49
2023-01-29T03:32:00.682Z,-4.49
2023-01-29T03:33:00.769Z,-4.5
2023-01-29T03:34:00.917Z,-4.49
2023-01-29T03:35:00.979Z,-4.49
2023-01-29T03:36:01.111Z,-4.46
2023-01-29T03:37:01.183Z,-4.46
2023-01-29T03:38:00.290Z,-4.48
2023-01-29T03:39:00.416Z,-4.5
2023-01-29T03:40:00.499Z,-4.51
2023-01-29T03:41:00.618Z,-4.51
2023-01-29T03:42:00.751Z,-4.51
2023-01-29T03:43:00.828Z,-4.49
2023-01-29T03:44:00.925Z,-4.46
2023-01-29T03:45:01.037Z,-4.44
2023-01-29T03:46:01.215Z,-4.42
2023-01-29T03:47:00.270Z,-4.4
2023-01-29T03:48:00.371Z,-4.38
2023-01-29T03:49:00.467Z,-4.38
2023-01-29T03:50:00.641Z,-4.36
2023-01-29T03:51:00.672Z,-4.34
2023-01-29T03:52:00.788Z,-4.31
2023-01-29T03:53:00.878Z,-4.3
2023-01-29T03:54:00.974Z,-4.27
2023-01-29T03:55:01.102Z,-4.26
2023-01-29T03:56:01.201Z,-4.24
2023-01-29T03:57:00.312Z,-4.22
2023-01-29T03:58:00.420Z,-4.22
2023-01-29T03:59:00.507Z,-4.21
2023-01-29T04:00:00.614Z,-4.2
2023-01-29T04:01:00.718Z,-4.2
2023-01-29T04:02:00.843Z,-4.2
2023-01-29T04:03:00.936Z,-4.21
2023-01-29T04:04:01.102Z,-4.22
2023-01-29T04:05:01.144Z,-4.23
2023-01-29T04:06:00.239Z,-4.23
2023-01-29T04:07:00.346Z,-4.23
2023-01-29T04:08:00.475Z,-4.23
2023-01-29T04:09:00.566Z,-4.24
2023-01-29T04:10:00.701Z,-4.26
2023-01-29T04:11:00.777Z,-4.27
2023-01-29T04:12:00.877Z,-4.27
2023-01-29T04:13:01.008Z,-4.28
2023-01-29T04:14:01.109Z,-4.29
2023-01-29T04:15:01.199Z,-4.3
2023-01-29T04:16:00.315Z,-4.31
2023-01-29T04:17:00.410Z,-4.3
2023-01-29T04:18:00.517Z,-4.31
2023-01-29T04:19:00.641Z,-4.32
2023-01-29T04:20:00.729Z,-4.34
2023-01-29T04:21:00.837Z,-4.34
2023-01-29T04:22:00.943Z,-4.35
2023-01-29T04:23:01.045Z,-4.35
2023-01-29T04:24:01.221Z,-4.34
2023-01-29T04:25:00.266Z,-4.36
2023-01-29T04:26:00.379Z,-4.36
2023-01-29T04:27:00.482Z,-4.36
2023-01-29T04:28:00.590Z,-4.36
2023-01-29T04:29:00.700Z,-4.35
2023-01-29T04:30:00.799Z,-4.34
2023-01-29T04:31:01.149Z,-4.34
2023-01-29T04:32:01.017Z,-4.35
2023-01-29T04:33:01.118Z,-4.36
2023-01-29T04:34:00.252Z,-4.38
2023-01-29T04:35:00.342Z,-4.38
2023-01-29T04:36:00.465Z,-4.38
2023-01-29T04:37:00.635Z,-4.38
2023-01-29T04:38:00.675Z,-4.38
2023-01-29T04:39:00.806Z,-4.38
2023-01-29T04:40:00.893Z,-4.38
2023-01-29T04:41:00.988Z,-4.38
2023-01-29T04:42:01.113Z,-4.38
2023-01-29T04:43:01.217Z,-4.38
2023-01-29T04:44:00.326Z,-4.38
2023-01-29T04:45:00.421Z,-4.38
2023-01-29T04:46:00.514Z,-4.38
2023-01-29T04:47:00.617Z,-4.39
2023-01-29T04:48:00.736Z,-4.39
2023-01-29T04:49:00.862Z,-4.39
2023-01-29T04:50:00.973Z,-4.4
2023-01-29T04:51:01.045Z,-4.39
2023-01-29T04:52:01.156Z,-4.41
2023-01-29T04:53:00.265Z,-4.42
2023-01-29T04:54:00.372Z,-4.43
2023-01-29T04:55:00.487Z,-4.45
2023-01-29T04:56:00.578Z,-4.46
2023-01-29T04:57:00.677Z,-4.46
2023-01-29T04:58:00.783Z,-4.48
2023-01-29T04:59:00.890Z,-4.49
2023-01-29T05:00:01.014Z,-4.5
2023-01-29T05:01:01.093Z,-4.52
2023-01-29T05:02:01.228Z,-4.53
2023-01-29T05:03:00.336Z,-4.56
2023-01-29T05:04:00.412Z,-4.58
2023-01-29T05:05:00.571Z,-4.59
2023-01-29T05:06:00.649Z,-4.6
2023-01-29T05:07:00.726Z,-4.6
2023-01-29T05:08:00.834Z,-4.6
2023-01-29T05:09:00.939Z,-4.61
2023-01-29T05:10:01.067Z,-4.63
2023-01-29T05:11:01.204Z,-4.64
2023-01-29T05:12:00.259Z,-4.67
2023-01-29T05:13:00.356Z,-4.67
2023-01-29T05:14:00.475Z,-4.68
2023-01-29T05:15:00.566Z,-4.71
2023-01-29T05:16:00.727Z,-4.76
2023-01-29T05:17:00.778Z,-4.78
2023-01-29T05:18:00.870Z,-4.81
2023-01-29T05:19:00.972Z,-4.83
2023-01-29T05:20:01.069Z,-4.85
2023-01-29T05:21:01.205Z,-4.85
2023-01-29T05:22:00.289Z,-4.86
2023-01-29T05:23:00.397Z,-4.87
2023-01-29T05:24:00.594Z,-4.88
2023-01-29T05:25:00.614Z,-4.87
2023-01-29T05:26:00.718Z,-4.89
2023-01-29T05:27:00.821Z,-4.89
2023-01-29T05:28:00.903Z,-4.88
2023-01-29T05:29:01.006Z,-4.88
2023-01-29T05:30:01.127Z,-4.89
2023-01-29T05:31:01.431Z,-4.91
2023-01-29T05:32:00.380Z,-4.95
2023-01-29T05:33:00.446Z,-4.96
2023-01-29T05:34:00.555Z,-4.97
2023-01-29T05:35:00.679Z,-4.99
2023-01-29T05:36:00.781Z,-5.02
2023-01-29T05:37:00.916Z,-5.03
2023-01-29T05:38:01.009Z,-5.04
2023-01-29T05:39:01.093Z,-5.08
2023-01-29T05:40:01.191Z,-5.1
2023-01-29T05:41:00.307Z,-5.11
2023-01-29T05:42:00.395Z,-5.12
2023-01-29T05:43:00.521Z,-5.13
2023-01-29T05:44:00.611Z,-5.15
2023-01-29T05:45:00.758Z,-5.15
2023-01-29T05:46:00.827Z,-5.16
2023-01-29T05:47:00.927Z,-5.17
2023-01-29T05:48:01.058Z,-5.16
2023-01-29T05:49:01.162Z,-5.15
2023-01-29T05:50:00.255Z,-5.15
2023-01-29T05:51:00.353Z,-5.15
2023-01-29T05:52:00.464Z,-5.14
2023-01-29T05:53:00.567Z,-5.15
2023-01-29T05:54:00.674Z,-5.16
2023-01-29T05:55:00.778Z,-5.17
2023-01-29T05:56:00.901Z,-5.18
2023-01-29T05:57:00.975Z,-5.18
2023-01-29T05:58:01.079Z,-5.2
2023-01-29T05:59:01.198Z,-5.22
2023-01-29T06:00:00.289Z,-5.22
2023-01-29T06:01:00.410Z,-5.23
2023-01-29T06:02:00.615Z,-5.24
2023-01-29T06:03:00.636Z,-5.25
2023-01-29T06:04:00.735Z,-5.28
2023-01-29T06:05:00.837Z,-5.29
2023-01-29T06:06:00.935Z,-5.32
2023-01-29T06:07:01.034Z,-5.35
2023-01-29T06:08:01.152Z,-5.37
2023-01-29T06:09:00.244Z,-5.38
2023-01-29T06:10:00.381Z,-5.38
2023-01-29T06:11:00.459Z,-5.4
2023-01-29T06:12:00.658Z,-5.41
2023-01-29T06:13:00.688Z,-5.41
2023-01-29T06:14:00.794Z,-5.42
2023-01-29T06:15:00.913Z,-5.42
2023-01-29T06:16:01.116Z,-5.41
2023-01-29T06:17:01.114Z,-5.42
2023-01-29T06:18:01.220Z,-5.42
2023-01-29T06:19:00.317Z,-5.42
2023-01-29T06:20:00.444Z,-5.41
2023-01-29T06:21:00.535Z,-5.41
2023-01-29T06:22:00.642Z,-5.41
2023-01-29T06:23:00.754Z,-5.4
2023-01-29T06:24:00.925Z,-5.4
2023-01-29T06:25:01.013Z,-5.4
2023-01-29T06:26:01.069Z,-5.39
2023-01-29T06:27:01.170Z,-5.4
2023-01-29T06:28:00.289Z,-5.39
2023-01-29T06:29:00.383Z,-5.38
2023-01-29T06:30:00.511Z,-5.38
2023-01-29T06:31:11.394Z,-5.37
2023-01-29T06:32:00.852Z,-5.37
2023-01-29T06:33:00.830Z,-5.35
2023-01-29T06:34:00.926Z,-5.33
2023-01-29T06:35:01.048Z,-5.32
2023-01-29T06:36:01.143Z,-5.32
2023-01-29T06:37:00.241Z,-5.3
2023-01-29T06:38:00.379Z,-5.29
2023-01-29T06:39:00.466Z,-5.27
2023-01-29T06:40:00.569Z,-5.25
2023-01-29T06:41:00.674Z,-5.24
2023-01-29T06:42:00.758Z,-5.22
2023-01-29T06:43:00.862Z,-5.2
2023-01-29T06:44:00.970Z,-5.18
2023-01-29T06:45:01.092Z,-5.16
2023-01-29T06:46:01.302Z,-5.14
2023-01-29T06:47:00.314Z,-5.12
2023-01-29T06:48:01.571Z,-5.12
2023-01-29T06:49:00.532Z,-5.11
2023-01-29T06:50:00.621Z,-5.11
2023-01-29T06:51:00.734Z,-5.1
2023-01-29T06:52:00.846Z,-5.1
2023-01-29T06:53:00.937Z,-5.09
2023-01-29T06:54:01.047Z,-5.09
2023-01-29T06:55:01.154Z,-5.08
2023-01-29T06:56:00.258Z,-5.07
2023-01-29T06:57:00.384Z,-5.05
2023-01-29T06:58:00.464Z,-5.04
2023-01-29T06:59:00.557Z,-5.03
2023-01-29T07:00:00.675Z,-5.03
2023-01-29T07:01:00.817Z,-5.03
2023-01-29T07:02:00.929Z,-5.03
2023-01-29T07:03:01.013Z,-5.03
2023-01-29T07:04:01.096Z,-5.02
2023-01-29T07:05:01.200Z,-5.01
2023-01-29T07:06:00.333Z,-5
2023-01-29T07:07:00.415Z,-5
2023-01-29T07:08:00.530Z,-4.99
2023-01-29T07:09:00.642Z,-4.99
2023-01-29T07:10:00.744Z,-5
2023-01-29T07:11:00.865Z,-5
2023-01-29T07:12:00.975Z,-5.01
2023-01-29T07:13:01.059Z,-5.01
2023-01-29T07:14:01.170Z,-5.01
2023-01-29T07:15:00.259Z,-5.02
2023-01-29T07:16:00.428Z,-5.02
2023-01-29T07:17:00.488Z,-5.03
2023-01-29T07:18:00.602Z,-5.03
2023-01-29T07:19:00.690Z,-5.04
2023-01-29T07:20:00.792Z,-5.04
2023-01-29T07:21:00.903Z,-5.04
2023-01-29T07:22:00.998Z,-5.05
2023-01-29T07:23:01.113Z,-5.05
2023-01-29T07:24:01.231Z,-5.05
2023-01-29T07:25:00.314Z,-5.07
2023-01-29T07:26:00.420Z,-5.08
2023-01-29T07:27:00.524Z,-5.09
2023-01-29T07:28:01.071Z,-5.1
2023-01-29T07:29:00.722Z,-5.11
2023-01-29T07:30:00.835Z,-5.11
2023-01-29T07:31:01.007Z,-5.1
2023-01-29T07:32:01.183Z,-5.09
2023-01-29T07:33:01.185Z,-5.08
2023-01-29T07:34:00.266Z,-5.05
2023-01-29T07:35:00.379Z,-5.05
2023-01-29T07:36:00.494Z,-5.04
2023-01-29T07:37:00.596Z,-5.01
2023-01-29T07:38:00.713Z,-4.98
2023-01-29T07:39:00.817Z,-4.96
2023-01-29T07:40:00.900Z,-4.91
2023-01-29T07:41:03.023Z,-4.89
2023-01-29T07:42:01.141Z,-4.87
2023-01-29T07:43:01.215Z,-4.85
2023-01-29T07:44:00.329Z,-4.81
2023-01-29T07:45:00.457Z,-4.78
2023-01-29T07:46:00.600Z,-4.7
2023-01-29T07:47:00.636Z,-4.66
2023-01-29T07:48:00.751Z,-4.6
2023-01-29T07:49:00.823Z,-4.56
2023-01-29T07:50:00.938Z,-4.5
2023-01-29T07:51:01.111Z,-4.45
2023-01-29T07:52:01.148Z,-4.41
2023-01-29T07:53:00.293Z,-4.37
2023-01-29T07:54:00.354Z,-4.32
2023-01-29T07:55:00.463Z,-4.28
2023-01-29T07:56:00.580Z,-4.26
2023-01-29T07:57:00.683Z,-4.22
2023-01-29T07:58:00.800Z,-4.2
2023-01-29T07:59:00.891Z,-4.16
2023-01-29T08:00:00.991Z,-4.13
2023-01-29T08:01:01.271Z,-4.11
2023-01-29T08:02:01.290Z,-4.08
2023-01-29T08:03:00.327Z,-4.07
2023-01-29T08:04:00.428Z,-4.05
2023-01-29T08:05:00.522Z,-4.02
2023-01-29T08:06:00.627Z,-3.99
2023-01-29T08:07:00.732Z,-3.94
2023-01-29T08:08:07.013Z,-3.93
2023-01-29T08:09:00.946Z,-3.93
2023-01-29T08:10:01.044Z,-3.91
2023-01-29T08:11:01.145Z,-3.87
2023-01-29T08:12:00.256Z,-3.85
2023-01-29T08:13:00.370Z,-3.84
2023-01-29T08:14:00.453Z,-3.85
2023-01-29T08:15:00.592Z,-3.85
2023-01-29T08:16:00.671Z,-3.83
2023-01-29T08:17:00.788Z,-3.82
2023-01-29T08:18:00.920Z,-3.8
2023-01-29T08:19:00.993Z,-3.79
2023-01-29T08:20:01.115Z,-3.78
2023-01-29T08:21:01.316Z,-3.77
2023-01-29T08:22:00.309Z,-3.75
2023-01-29T08:23:00.509Z,-3.71
2023-01-29T08:25:08.165Z,-3.69
2023-01-29T08:26:00.765Z,-3.68
2023-01-29T08:27:00.838Z,-3.67
2023-01-29T08:28:00.963Z,-3.64
2023-01-29T08:29:01.033Z,-3.62
2023-01-29T08:30:01.142Z,-3.62
2023-01-29T08:31:00.282Z,-3.6
2023-01-29T08:32:00.414Z,-3.6
2023-01-29T08:33:00.475Z,-3.55
2023-01-29T08:34:00.553Z,-3.53
2023-01-29T08:35:00.671Z,-3.53
2023-01-29T08:36:00.760Z,-3.5
2023-01-29T08:37:00.874Z,-3.49
2023-01-29T08:38:00.995Z,-3.45
2023-01-29T08:39:01.094Z,-3.46
2023-01-29T08:40:01.201Z,-3.46
2023-01-29T08:41:00.292Z,-3.46
2023-01-29T08:42:00.410Z,-3.43
2023-01-29T08:43:02.251Z,-3.43
2023-01-29T08:44:00.734Z,-3.45
2023-01-29T08:45:00.731Z,-3.42
2023-01-29T08:46:00.947Z,-3.42
2023-01-29T08:47:00.930Z,-3.43
2023-01-29T08:48:01.060Z,-3.4
2023-01-29T08:49:01.152Z,-3.4
2023-01-29T08:50:00.254Z,-3.4
2023-01-29T08:51:00.355Z,-3.4
2023-01-29T08:52:02.983Z,-3.41
2023-01-29T08:53:00.565Z,-3.4
2023-01-29T08:54:00.665Z,-3.39
2023-01-29T08:55:00.776Z,-3.38
2023-01-29T08:56:00.873Z,-3.36
2023-01-29T08:57:00.987Z,-3.34
2023-01-29T08:58:01.088Z,-3.31
2023-01-29T08:59:01.220Z,-3.3
2023-01-29T09:00:00.304Z,-3.3
2023-01-29T09:01:00.435Z,-3.28
2023-01-29T09:02:00.510Z,-3.27
2023-01-29T09:03:00.643Z,-3.26
2023-01-29T09:04:00.780Z,-3.24
2023-01-29T09:05:00.866Z,-3.23
2023-01-29T09:06:00.938Z,-3.23
2023-01-29T09:07:01.050Z,-3.21
2023-01-29T09:08:01.151Z,-3.18
2023-01-29T09:09:00.272Z,-3.18
2023-01-29T09:10:00.398Z,-3.18
2023-01-29T09:11:00.489Z,-3.17
2023-01-29T09:12:00.577Z,-3.16
2023-01-29T09:13:00.685Z,-3.15
2023-01-29T09:14:00.786Z,-3.13
2023-01-29T09:15:00.911Z,-3.11
2023-01-29T09:16:00.996Z,-3.08
2023-01-29T09:17:01.115Z,-3.07
2023-01-29T09:18:01.231Z,-3.06
2023-01-29T09:19:00.327Z,-3.05
2023-01-29T09:20:00.445Z,-3.06
2023-01-29T09:21:00.529Z,-3.06
2023-01-29T09:22:00.672Z,-3.04
2023-01-29T09:23:00.744Z,-3.02
2023-01-29T09:24:00.864Z,-3.02
2023-01-29T09:25:00.985Z,-2.98
2023-01-29T09:26:01.062Z,-2.97
2023-01-29T09:27:01.161Z,-2.96
2023-01-29T09:28:00.271Z,-2.94
2023-01-29T09:29:00.373Z,-2.93
2023-01-29T09:30:00.493Z,-2.94
2023-01-29T09:31:00.698Z,-2.94
2023-01-29T09:32:00.718Z,-2.91
2023-01-29T09:33:00.799Z,-2.89
2023-01-29T09:34:00.882Z,-2.87
2023-01-29T09:35:00.995Z,-2.86
2023-01-29T09:36:01.110Z,-2.83
2023-01-29T09:37:01.212Z,-2.84
2023-01-29T09:38:00.322Z,-2.83
2023-01-29T09:39:00.424Z,-2.81
2023-01-29T09:40:00.535Z,-2.79
2023-01-29T09:41:00.666Z,-2.77
2023-01-29T09:42:00.759Z,-2.76
2023-01-29T09:43:00.856Z,-2.75
2023-01-29T09:44:00.954Z,-2.74
2023-01-29T09:45:01.082Z,-2.73
2023-01-29T09:46:01.243Z,-2.73
2023-01-29T09:47:00.276Z,-2.69
2023-01-29T09:48:00.384Z,-2.67
2023-01-29T09:49:00.490Z,-2.67
2023-01-29T09:50:00.609Z,-2.66
2023-01-29T09:51:00.728Z,-2.66
2023-01-29T09:52:00.826Z,-2.69
2023-01-29T09:53:00.925Z,-2.68
2023-01-29T09:54:01.030Z,-2.68
2023-01-29T09:55:01.159Z,-2.68
2023-01-29T09:56:00.261Z,-2.67
2023-01-29T09:57:00.392Z,-2.68
2023-01-29T09:58:00.468Z,-2.68
2023-01-29T09:59:01.755Z,-2.66
2023-01-29T10:00:00.665Z,-2.65
2023-01-29T10:01:00.781Z,-2.64
2023-01-29T10:02:01.075Z,-2.61
2023-01-29T10:03:01.013Z,-2.6
2023-01-29T10:04:01.109Z,-2.58
2023-01-29T10:05:01.204Z,-2.57
2023-01-29T10:06:00.304Z,-2.58
2023-01-29T10:07:00.404Z,-2.58
2023-01-29T10:08:00.539Z,-2.57
2023-01-29T10:09:00.611Z,-2.53
2023-01-29T10:10:00.719Z,-2.52
2023-01-29T10:11:00.847Z,-2.51
2023-01-29T10:12:00.944Z,-2.5
2023-01-29T10:13:01.050Z,-2.49
2023-01-29T10:14:01.169Z,-2.5
2023-01-29T10:15:00.258Z,-2.5
2023-01-29T10:16:00.363Z,-2.48
2023-01-29T10:17:00.566Z,-2.45
2023-01-29T10:18:00.597Z,-2.43
2023-01-29T10:19:00.697Z,-2.41
2023-01-29T10:20:00.795Z,-2.39
2023-01-29T10:21:00.899Z,-2.39
2023-01-29T10:22:01.014Z,-2.36
2023-01-29T10:23:01.099Z,-2.31
2023-01-29T10:24:01.196Z,-2.29
2023-01-29T10:25:00.338Z,-2.27
2023-01-29T10:26:00.412Z,-2.21
2023-01-29T10:27:00.511Z,-2.19
2023-01-29T10:28:00.617Z,-2.17
2023-01-29T10:29:00.725Z,-2.16
2023-01-29T10:30:00.860Z,-2.15
2023-01-29T10:31:01.052Z,-2.12
2023-01-29T10:32:01.161Z,-2.07
2023-01-29T10:33:01.143Z,-2.08
2023-01-29T10:34:02.938Z,-2.08
2023-01-29T10:35:00.401Z,-2.09
2023-01-29T10:36:00.486Z,-2.08
2023-01-29T10:37:00.587Z,-2.03
2023-01-29T10:38:00.691Z,-2.03
2023-01-29T10:39:00.800Z,-2.03
2023-01-29T10:40:00.918Z,-2.05
2023-01-29T10:41:00.993Z,-2.03
2023-01-29T10:42:01.092Z,-2.02
2023-01-29T10:43:01.245Z,-2.03
2023-01-29T10:44:00.312Z,-2.02
2023-01-29T10:45:00.422Z,-2.03
2023-01-29T10:46:00.536Z,-2.02
2023-01-29T10:47:00.653Z,-2.02
2023-01-29T10:48:00.731Z,-2.02
2023-01-29T10:49:00.847Z,-2.02
2023-01-29T10:50:00.942Z,-2.01
2023-01-29T10:51:01.061Z,-1.98
2023-01-29T10:52:01.149Z,-1.95
2023-01-29T10:53:00.255Z,-1.93
2023-01-29T10:54:00.376Z,-1.91
2023-01-29T10:55:00.501Z,-1.92
2023-01-29T10:56:02.494Z,-1.92
2023-01-29T10:57:00.693Z,-1.93
2023-01-29T10:58:02.795Z,-1.93
2023-01-29T10:59:00.899Z,-1.92
2023-01-29T11:00:01.016Z,-1.93
2023-01-29T11:01:01.148Z,-1.92
2023-01-29T11:02:01.273Z,-1.91
2023-01-29T11:03:00.539Z,-1.92
2023-01-29T11:04:00.442Z,-1.91
2023-01-29T11:05:00.572Z,-1.89
2023-01-29T11:06:00.671Z,-1.88
2023-01-29T11:07:00.769Z,-1.85
2023-01-29T11:08:00.863Z,-1.84
2023-01-29T11:09:00.981Z,-1.83
2023-01-29T11:10:01.078Z,-1.79
2023-01-29T11:11:01.200Z,-1.78
2023-01-29T11:12:00.286Z,-1.77
2023-01-29T11:13:00.392Z,-1.76
2023-01-29T11:14:00.505Z,-1.72
2023-01-29T11:15:00.597Z,-1.72
2023-01-29T11:16:00.719Z,-1.73
2023-01-29T11:17:00.869Z,-1.72
2023-01-29T11:18:00.911Z,-1.7
2023-01-29T11:19:01.015Z,-1.71
2023-01-29T11:20:01.119Z,-1.69
2023-01-29T11:21:01.250Z,-1.68
2023-01-29T11:22:00.324Z,-1.68
2023-01-29T11:23:00.497Z,-1.68
2023-01-29T11:24:00.541Z,-1.7
2023-01-29T11:25:00.652Z,-1.67
2023-01-29T11:26:00.799Z,-1.65
2023-01-29T11:27:00.897Z,-1.62
2023-01-29T11:28:00.967Z,-1.62
2023-01-29T11:29:01.078Z,-1.63
2023-01-29T11:30:01.173Z,-1.62
2023-01-29T11:31:00.353Z,-1.61
2023-01-29T11:32:00.387Z,-1.63
2023-01-29T11:33:00.507Z,-1.63
2023-01-29T11:34:00.614Z,-1.63
2023-01-29T11:35:00.720Z,-1.64
2023-01-29T11:36:00.838Z,-1.64
2023-01-29T11:37:00.953Z,-1.62
2023-01-29T11:38:01.039Z,-1.59
2023-01-29T11:39:01.154Z,-1.59
2023-01-29T11:40:00.278Z,-1.57
2023-01-29T11:41:00.383Z,-1.58
2023-01-29T11:42:00.484Z,-1.62
2023-01-29T11:43:00.577Z,-1.62
2023-01-29T11:44:00.682Z,-1.62
2023-01-29T11:45:00.784Z,-1.63
2023-01-29T11:46:00.901Z,-1.63
2023-01-29T11:47:01.026Z,-1.62
2023-01-29T11:48:01.098Z,-1.62
2023-01-29T11:49:14.136Z,-1.61
2023-01-29T11:50:00.310Z,-1.62
2023-01-29T11:51:00.411Z,-1.63
2023-01-29T11:52:00.540Z,-1.64
2023-01-29T11:53:00.618Z,-1.63
2023-01-29T11:54:00.735Z,-1.59
2023-01-29T11:55:00.868Z,-1.54
2023-01-29T11:56:00.949Z,-1.52
2023-01-29T11:57:01.062Z,-1.47
2023-01-29T11:58:01.157Z,-1.46
2023-01-29T11:59:00.256Z,-1.47
2023-01-29T12:00:00.361Z,-1.45
2023-01-29T12:01:00.473Z,-1.45
2023-01-29T12:02:00.594Z,-1.46
2023-01-29T12:03:00.687Z,-1.48
2023-01-29T12:04:00.825Z,-1.48
2023-01-29T12:05:00.899Z,-1.49
2023-01-29T12:06:01.068Z,-1.47
2023-01-29T12:07:01.139Z,-1.45
2023-01-29T12:08:01.250Z,-1.45
2023-01-29T12:09:00.342Z,-1.45
2023-01-29T12:10:00.428Z,-1.44
2023-01-29T12:11:00.524Z,-1.42
2023-01-29T12:12:00.656Z,-1.41
2023-01-29T12:13:00.740Z,-1.4
2023-01-29T12:14:00.857Z,-1.36
2023-01-29T12:15:00.961Z,-1.34
2023-01-29T12:16:01.110Z,-1.32
2023-01-29T12:17:01.203Z,-1.32
2023-01-29T12:18:00.281Z,-1.3
2023-01-29T12:19:00.368Z,-1.28
2023-01-29T12:20:00.472Z,-1.23
2023-01-29T12:21:00.571Z,-1.18
2023-01-29T12:22:02.963Z,-1.17
2023-01-29T12:23:00.804Z,-1.2
2023-01-29T12:24:00.904Z,-1.23
2023-01-29T12:25:01.025Z,-1.25
2023-01-29T12:26:01.118Z,-1.26
2023-01-29T12:27:01.223Z,-1.25
2023-01-29T12:28:00.332Z,-1.21
2023-01-29T12:29:00.427Z,-1.19
2023-01-29T12:30:00.541Z,-1.17
2023-01-29T12:31:00.673Z,-1.14
2023-01-29T12:32:00.743Z,-1.15
2023-01-29T12:33:00.861Z,-1.17
2023-01-29T12:34:00.974Z,-1.21
2023-01-29T12:35:01.072Z,-1.25
2023-01-29T12:36:01.172Z,-1.24
2023-01-29T12:37:00.287Z,-1.24
2023-01-29T12:38:00.417Z,-1.24
2023-01-29T12:39:00.501Z,-1.26
2023-01-29T12:40:00.599Z,-1.27
2023-01-29T12:41:00.711Z,-1.3
2023-01-29T12:42:00.822Z,-1.32
2023-01-29T12:43:00.936Z,-1.38
2023-01-29T12:44:01.028Z,-1.38
2023-01-29T12:45:01.136Z,-1.36
2023-01-29T12:46:00.239Z,-1.35
2023-01-29T12:47:00.402Z,-1.36
2023-01-29T12:48:00.468Z,-1.39
2023-01-29T12:49:00.556Z,-1.4
2023-01-29T12:50:00.676Z,-1.38
2023-01-29T12:51:00.756Z,-1.38
2023-01-29T12:52:00.855Z,-1.36
2023-01-29T12:53:00.960Z,-1.36
2023-01-29T12:54:01.082Z,-1.4
2023-01-29T12:55:01.205Z,-1.39
2023-01-29T12:56:00.272Z,-1.38